Nicolas Mina

Olheiro-Chefe - Deportivo Pasto
3 Dez 2028
Domingo
Processo

Personalidade

Adaptabilidade (4) Ambição (8) Controvérsia (8) Lealdade (14) Pressão (15) Profissionalismo (4) Espírito Esportivo (10) Temperamento (17)

Perfil

Estilo de Treinamento Democrático
Licença Nacional B
Determinação 6
Gestão de Pessoas 10
Motivação 7
Disciplina 10
Satisfação no Trabalho
100%
Fadiga
0%
Função Olheiro-Chefe
Salário 40.1K p/s
Contrato 14.03.2030

Desempenho

Comportamento Bom
Eficácia do Treinamento
26%
Desenvolvimento do Jogador
55%
Prevenção de Lesões
35%
Implementação Tática
30%

Eventos Recentes

Participou de uma reunião de recrutamento 7d atrás
Recomendou um alvo de transferência 7d atrás
Participou de uma reunião de recrutamento 14d atrás
Recomendou um alvo de transferência 14d atrás
Participou de uma reunião de recrutamento 21d atrás
Recomendou um alvo de transferência 21d atrás
Aniversário 21d atrás
Recomendou um alvo de transferência 28d atrás

Monitorando agora

178
Jogador Clube Status Habilidade Confiança Observado Última observação Último voto
Luca Williams-Barnett Walsall Ativo 110 / 124 40% 19 30.05.2028 -
Ryan Kavuma-McQueen Accrington Stanley Ativo 132 / 125 40% 5 30.05.2028 -
Josh Nichols Oldham Athletic Ativo 119 / 125 40% 4 26.05.2028 -
André Miranda Porto Ativo 110 / 113 40% 6 25.05.2028 -
Abdoulaye Allamine Stars Jeunes Talents Ativo 77 / 72 40% 2 25.05.2028 -
Ben Broggio Mansfield Town Ativo 116 / 109 40% 5 24.05.2028 -
Alphadjo Cissé Lecce Ativo 134 / 144 40% 3 24.05.2028 -
Henrique Carmo Sochi Ativo 131 / 147 40% 4 23.05.2028 -
Louis Zecevic-John Colchester United Ativo 109 / 104 40% 1 23.05.2028 -
Shea Lacey Crystal Palace Ativo 122 / 151 40% 3 20.05.2028 -
Fletcher Boyd Accrington Stanley Ativo 88 / 123 40% 2 18.05.2028 -
Gabriel Mec Feirense Ativo 133 / 118 40% 3 17.05.2028 -
Leo Pecover Swindon Town Ativo 81 / 105 40% 1 17.05.2028 -
Ryan McAidoo Oldham Athletic Ativo 112 / 117 40% 7 16.05.2028 -
Gabe Forsyth Colchester United Ativo 96 / 116 40% 2 09.05.2028 -
Eli Junior Kroupi Bournemouth Ativo 162 / 165 40% 5 07.05.2028 -
Dani Díaz Real Sociedad Ativo 106 / 140 40% 1 07.05.2028 -
Rio Ngumoha Plymouth Argyle Ativo 142 / 144 40% 4 04.05.2028 -
Luca Meirelles Kudrivka Ativo 130 / 121 40% 4 02.05.2028 -
Siyabonga Mabena Bidvest Wits Ativo 140 / 118 40% 6 27.04.2028 -
Trey Nyoni Rotherham United Ativo 136 / 143 40% 3 27.04.2028 -
Ibrahim Fullah Charlton Athletic Ativo 116 / 121 40% 2 19.04.2028 -
Kerim Alajbegović Modena Ativo 121 / 142 40% 2 18.04.2028 -
Giovanni Cantizano Fulham Ativo 121 / 125 40% 2 10.04.2028 -
İsak Vural Audace Cerignola Ativo 112 / 126 40% 1 09.04.2028 -
Oscar Schwartau Norwich City Ativo 121 / 124 40% 3 07.04.2028 -
Jake Evans Crewe Alexandra Ativo 129 / 126 40% 2 06.04.2028 -
Josh Acheampong Everton Ativo 161 / 139 40% 3 04.04.2028 -
Babis Kostoulas Oxford United Ativo 158 / 136 40% 4 04.04.2028 -
Igor Tyjon Barrow AFC Ativo 103 / 106 40% 1 30.03.2028 -
Lwanda Mbanjwa Platinum Stars Ativo 94 / 98 40% 2 28.03.2028 -
Daniel Banjaqui Benfica Ativo 132 / 116 40% 3 27.03.2028 -
Oskar Pietuszewski Estrela da Amadora Ativo 124 / 140 40% 3 20.03.2028 -
Amin Nabizada Exeter City Ativo 123 / 116 40% 2 14.03.2028 -
Omar Khedr Gillingham Ativo 117 / 133 40% 1 13.03.2028 -
Luighi Palmeiras Ativo 99 / 120 40% 3 09.03.2028 -
Honest Ahanor Atalanta Ativo 125 / 133 40% 3 07.03.2028 -
Isaque Obolon Ativo 106 / 127 40% 1 26.02.2028 -
Lander Astiazarán Real Sociedad Ativo 123 / 131 40% 2 25.02.2028 -
Nana Nuhu WAFA Ativo 95 / 102 40% 1 18.02.2028 -
Luka Andrade Montevideo City Torque Ativo 99 / 112 40% 4 05.02.2028 -
Gomolemo Kekana Maritzburg United Ativo 99 / 103 40% 2 04.02.2028 -
Francisco Triver River Plate Ativo 91 / 94 40% 1 03.02.2028 -
Jeremías Merlo Gimnasia La Plata Ativo 130 / 130 40% 5 31.01.2028 -
Alex Verón Vélez Ativo 110 / 129 40% 2 31.01.2028 -
Ruben Ramos LA Galaxy Ativo 83 / 100 40% 4 28.01.2028 -
Nestory Irankunda Watford Ativo 129 / 123 40% 1 28.01.2028 -
Kofi Duffour Cherepovets Ativo 56 / 73 40% 1 27.01.2028 -
Matías Arias Vélez Ativo 121 / 118 40% 2 26.01.2028 -
Esquerdinha Notts County Ativo 112 / 142 40% 2 26.01.2028 -
Juan Rodríguez Cerro Largo Ativo 98 / 107 40% 1 25.01.2028 -
Joel Medina Independiente Ativo 101 / 122 40% 2 24.01.2028 -
Rémi Himbert AC Ajaccio Ativo 131 / 121 40% 2 23.01.2028 -
Ramiro Jara Racing Ativo 78 / 96 40% 1 22.01.2028 -
Lewis Orford Crewe Alexandra Ativo 116 / 120 40% 1 19.01.2028 -
Dylan Cabral Arsenal Ativo 102 / 113 40% 4 16.01.2028 -
Benjamín Rodríguez Albion Ativo 93 / 92 40% 1 09.01.2028 -
Lucas Camejo River Plate Ativo 76 / 92 40% 1 06.01.2028 -
Godwin Oham Warri Wolves Ativo 104 / 80 40% 1 28.06.2027 -
Riley Owen Stevenage Ativo 88 / 126 40% 1 28.06.2027 -
Jaime Acosta Barranquilla Ativo 85 / 87 44% 1 21.06.2027 -
Miguel Figueiredo Benfica Ativo 112 / 112 40% 1 21.06.2027 -
Felipe Faúndez O'Higgins Ativo 88 / 102 40% 1 21.06.2027 -
Luke Baartman Ajax Cape Town Ativo 99 / 121 40% 3 30.05.2027 -
Stanley Amon Bayelsa United Ativo 70 / 108 40% 2 30.05.2027 -
Gosiame Ngobeni New Edubiase United Ativo 68 / 59 40% 1 26.05.2027 -
Ryan Oné Sheffield United Ativo 109 / 134 40% 4 21.05.2027 -
Leo Castledine Middlesbrough Ativo 140 / 139 40% 1 20.05.2027 -
Lorenzo De Leo Renate Ativo 89 / 92 40% 2 19.05.2027 -
Giuseppe Coppola Picerno Ativo 116 / 98 40% 1 19.05.2027 -
Fletcher Holman Swindon Town Ativo 83 / 106 40% 4 18.05.2027 -
Darlvin Yeboah Bechem United Ativo 98 / 102 40% 6 13.05.2027 -
Matvii Ponomarenko Dynamo Kyiv Ativo 97 / 137 40% 4 12.05.2027 -
George Brown Sheffield Wednesday Ativo 79 / 116 40% 2 07.05.2027 -
Ben Ahmed Kohili Paradou Ativo 119 / 123 40% 2 05.05.2027 -
Serge Daura PWD Bamenda Ativo 119 / 104 40% 3 03.05.2027 -
Teboho Zwane Ajax Cape Town Ativo 91 / 99 40% 1 03.05.2027 -
Dilan Neves Benfica Ativo 80 / 94 40% 1 02.05.2027 -
Joseph George Aigle Royal de Moungo Ativo 106 / 78 40% 2 30.04.2027 -
Naledi Hlongwane Wa All Stars Ativo 89 / 87 40% 7 28.04.2027 -
Rafael Moreno Atletico Venezuela Ativo 105 / 121 40% 5 26.04.2027 -
Dani Ángel Sampdoria Ativo 84 / 114 40% 4 23.04.2027 -
Máximo Seggio Crawley Town Ativo 85 / 78 40% 2 23.04.2027 -
Nicolás Campos Central Espanol Ativo 83 / 96 40% 1 20.04.2027 -
Jonás Luna Wanderers Ativo 119 / 115 40% 4 16.04.2027 -
Miloš Jovičić Zabbar St. Patrick Ativo 98 / 110 40% 3 13.04.2027 -
Borna Knezović Casarano Ativo 118 / 93 40% 1 13.04.2027 -
Sergey Gaiduk Salyut Ativo 82 / 73 40% 2 10.04.2027 -
Mateus Mané Burnley Ativo 127 / 157 40% 6 09.04.2027 -
Michael Noumon Heart of Lions Ativo 99 / 80 40% 2 08.04.2027 -
Rocco Vata Watford Ativo 104 / 121 40% 4 03.04.2027 -
Víctor Guzmán Sporting CP Ativo 111 / 85 40% 2 01.04.2027 -
Njabulo Hlongwane AS Korofina Ativo 62 / 91 40% 1 01.04.2027 -
Will Lankshear Middlesbrough Ativo 123 / 137 40% 1 29.03.2027 -
Elijas Gunnergård Ortan Ahrobiznes Ativo 102 / 68 40% 1 27.03.2027 -
Eduardo Lozano Botafogo Ativo 139 / 159 40% 2 24.03.2027 -
Nahuel da Silva Montevideo City Torque Ativo 94 / 119 40% 1 22.03.2027 -
Tiago Pucciarelli IF Elfsborg Ativo 103 / 117 40% 4 16.03.2027 -
Bariş Kalaycı Fatih Karagumruk Ativo 123 / 100 40% 1 16.03.2027 -
Mikel Gogorza Brondby Ativo 142 / 122 40% 3 10.03.2027 -
Nazif Inoussa Benfica Ativo 69 / 100 40% 1 28.02.2027 -
Roberto Iliev Slavia Sofia Ativo 102 / 95 40% 1 23.02.2027 -
Ousseynou Seck Randers Ativo 88 / 133 40% 1 22.02.2027 -
Ethan Williams Peterborough United Ativo 121 / 109 40% 5 17.02.2027 -
Benjamin Jack Sliema Wanderers Ativo 74 / 98 40% 1 15.02.2027 -
Rivaldo Mkhize Black Aces Ativo 68 / 103 40% 1 15.02.2027 -
Zack Nelson Ternana Ativo 106 / 88 40% 5 11.02.2027 -
Asanele Bonani Chippa United Ativo 77 / 109 40% 1 09.02.2027 -
Sebastián Bonilla Victoriia Sumy Ativo 74 / 86 40% 1 08.02.2027 -
Romelle Donovan Brentford Ativo 132 / 120 40% 2 07.02.2027 -
Fabijan Krivak Sigma Olomouc Ativo 134 / 116 40% 1 07.02.2027 -
Olivier Leroux Mouscron Ativo 109 / 120 40% 1 05.02.2027 -
Tomás Abdelnur Santos Laguna Ativo 102 / 88 40% 1 03.02.2027 -
Jon Eceizabarrena Real Sociedad Ativo 105 / 92 40% 1 29.01.2027 -
Calum Agius Crewe Alexandra Ativo 107 / 85 40% 2 27.01.2027 -
Bazoumana Touré Newcastle United Ativo 134 / 160 40% 1 27.01.2027 -
Lucas Ferreira Shakhtar Ativo 125 / 129 40% 2 25.01.2027 -
Martin Gjorgievski Zbrojovka Brno Ativo 116 / 126 40% 1 24.01.2027 -
Bobby Clark Derby County Ativo 117 / 132 40% 1 23.01.2027 -
Mohamadou Kanté Crawley Town Ativo 116 / 135 40% 3 22.01.2027 -
Othmane Maamma Watford Ativo 133 / 113 40% 2 21.01.2027 -
Yael Padilla Tijuana Ativo 127 / 109 40% 2 20.01.2027 -
Gorka Gorosabel Real Sociedad Ativo 96 / 123 40% 2 19.01.2027 -
Robert FC Copenhagen Ativo 112 / 124 40% 1 16.01.2027 -
Kyriani Sabbe Club Brugge Ativo 109 / 141 40% 1 15.01.2027 -
Thalente Mbatha Orlando Pirates Ativo 122 / 123 40% 1 08.01.2027 -
Paulo Victor Queretaro Ativo 94 / 129 40% 1 08.01.2027 -
Pedro Ramírez Deportivo Riestra Ativo 123 / 114 40% 1 05.01.2027 -
Ethan Pye Stockport County Ativo 97 / 110 40% 1 05.01.2027 -
Gianluca Prestianni Benfica Ativo 124 / 158 40% 1 29.12.2026 -
Veljko Radosavljević Cukaricki Ativo 102 / 93 40% 1 29.12.2026 -
Jackson Porozo Tijuana Ativo 127 / 117 40% 1 03.12.2026 -
Justin Devenny Stoke City Ativo 117 / 143 40% 1 02.12.2026 -
Sampson Dweh Mallorca Ativo 133 / 134 66% 1 01.12.2026 Aprovar
Matías Contrera Hrvatski Dragovoljac Ativo 92 / 95 40% 3 29.11.2026 -
Ezekiel Kwame Alladoh Philadelphia Union Ativo 105 / 105 40% 1 28.11.2026 -
Bogdan Petrović TSC Ativo 111 / 125 40% 1 26.11.2026 -
Luciano Inverso Betis Ativo 103 / 136 40% 1 22.11.2026 -
Gabriel Monjes Hamrun Spartans Ativo 69 / 96 40% 1 22.11.2026 -
Alan Torterolo Defensor Sporting Ativo 82 / 86 40% 2 18.11.2026 -
Joaquín Tobio Burgos Pachuca Ativo 110 / 124 40% 3 17.11.2026 -
Youssoufa Moukoko FC Copenhagen Ativo 137 / 127 40% 3 14.11.2026 -
Juan David Delgado Atvidaberg Ativo 58 / 67 40% 1 14.11.2026 -
Juan Francisco Rossel Puebla Ativo 76 / 91 40% 2 11.11.2026 -
Jerónimo Russo Newell's Old Boys Ativo 105 / 99 40% 2 11.11.2026 -
David Fernández O'Higgins Ativo 106 / 108 40% 1 08.11.2026 -
Lucas Girotti Gillingham Ativo 61 / 76 40% 1 01.11.2026 -
Tomás Salteño Rosario Central Ativo 83 / 90 40% 1 25.10.2026 -
Ramiro Hernandes Belgrano Ativo 130 / 124 40% 1 25.10.2026 -
Diego Gaitán Maipú Ativo 115 / 113 40% 1 25.10.2026 -
Jhon Aponza Boca Juniors Ativo 114 / 124 40% 4 18.10.2026 -
Lautaro Gutiérrez Belgrano Ativo 100 / 100 40% 1 17.10.2026 -
Brandon Márquez Sarmiento Ativo 91 / 101 40% 1 16.10.2026 -
Didier Dawson Envigado Ativo 117 / 110 40% 1 16.10.2026 -
Leandro Córdoba Racing Ativo 106 / 112 40% 1 13.10.2026 -
Themba Dala Black Aces Ativo 130 / 123 40% 1 06.10.2026 -
Facundo Di Biasi Gimnasia La Plata Ativo 104 / 132 40% 1 05.10.2026 -
Román Fernández Atlético Tucumán Ativo 84 / 98 40% 1 30.09.2026 -
Nicolás Sosa La Luz Ativo 93 / 85 40% 1 20.09.2026 -
Thiago Ponce Rosario Central Ativo 87 / 114 40% 1 12.09.2026 -
Agustín Medina Lanús Ativo 99 / 123 40% 1 10.09.2026 -
Leonel Flores Boca Juniors Ativo 110 / 99 40% 1 04.09.2026 -
Bautista Pereira Danubio Ativo 77 / 95 40% 1 01.09.2026 -
Bautista Casas Medina Alvarado Ativo 75 / 80 40% 1 28.08.2026 -
Massimo Campana Cesar Vallejo Ativo 71 / 96 40% 1 27.08.2026 -
Mauricio Di Gubio Godoy Cruz Ativo 83 / 76 40% 1 21.08.2026 -
Gastón Silvero Barracas Central Ativo 91 / 95 40% 1 20.08.2026 -
Ángel González Sportivo Luqueno Ativo 89 / 101 40% 1 19.08.2026 -
Aldo Pérez Guarani Ativo 105 / 109 40% 1 13.08.2026 -
Jorge Hernández Tijuana Ativo 104 / 115 40% 1 13.08.2026 -
Beycker Velásquez Zamora Ativo 109 / 102 40% 1 11.08.2026 -
Sipho Chaine Orlando Pirates Ativo 130 / 116 40% 1 10.08.2026 -
Francisco Mongelos Sportivo Luqueno Ativo 90 / 96 40% 1 08.08.2026 -
Drake Callender Minnesota United FC Ativo 111 / 116 40% 1 06.08.2026 -
Jorge Morel Cerro Porteno Ativo 108 / 127 40% 1 05.08.2026 -
Sebastián Pereira Union Espanola Ativo 96 / 99 40% 1 03.08.2026 -
Jorge Sánchez Atlas Ativo 144 / 129 40% 1 03.08.2026 -
Víctor Felipe Méndez Colo-Colo Ativo 131 / 106 40% 1 01.08.2026 -